Date,TemperatureHighF,TemperatureAvgF,TemperatureLowF,DewpointHighF,DewpointAvgF,DewpointLowF,HumidityHigh,HumidityAvg,HumidityLow,PressureMaxIn,PressureMinIn,WindSpeedMaxMPH,WindSpeedAvgMPH,GustSpeedMaxMPH,PrecipitationSumIn
2013-2-1,48.9,44.5,41.9,43.9,41.7,39.6,94,90,82,30.02,29.94,4,0,7,0.07
2013-2-2,43.0,39.2,34.2,39.7,36.3,31.0,93,90,86,30.40,30.27,2,0,4,0.00
2013-2-3,35.2,34.5,33.8,32.4,31.6,30.9,90,89,89,30.32,30.30,1,0,2,0.00
2013-2-4,49.8,44.6,41.7,42.7,40.3,38.3,90,85,74,30.23,29.91,3,1,5,0.00
2013-2-5,48.9,43.8,41.9,42.5,40.1,37.9,93,87,75,29.98,29.86,5,1,194,0.35
2013-2-6,48.9,42.8,40.1,42.4,39.1,37.3,94,87,76,30.09,29.81,6,1,11,0.17
2013-2-7,48.2,39.6,29.1,40.7,34.7,26.3,93,83,62,30.22,29.82,6,1,11,0.11
2013-2-8,43.3,35.4,28.9,36.1,30.9,26.3,90,84,71,30.33,30.22,3,0,5,0.00
2013-2-9,43.0,38.8,36.0,38.7,35.4,31.4,93,87,83,30.36,30.28,2,0,2,0.02
2013-2-10,46.4,39.1,34.2,37.8,34.8,31.0,92,85,66,30.40,30.34,4,0,7,0.00
2013-2-11,47.1,41.2,36.5,38.1,35.9,32.1,89,81,67,30.38,30.34,2,0,4,0.00
2013-2-12,48.2,45.0,41.2,43.6,41.2,37.6,91,87,80,30.42,30.32,7,1,14,0.11
2013-2-13,47.8,44.4,42.1,41.6,39.2,37.1,90,82,74,30.53,30.32,6,1,11,0.04
2013-2-14,49.3,44.4,40.8,43.1,40.3,37.5,91,85,77,30.58,30.52,4,0,9,0.06
2013-2-15,52.2,42.6,36.7,44.3,38.8,33.3,93,87,70,30.57,30.20,3,0,5,0.00
2013-2-16,50.5,43.1,34.7,40.8,37.5,31.5,93,81,64,30.23,30.14,6,1,14,0.02
2013-2-17,41.2,40.9,40.6,35.6,35.0,34.4,82,79,77,30.24,30.22,2,1,5,0.00
2013-2-18,46.2,38.6,32.9,36.8,33.4,29.5,90,82,63,30.13,29.77,2,0,3,0.00
2013-2-19,50.4,37.7,31.6,35.7,31.5,27.8,88,79,56,30.04,29.75,4,0,7,0.01
2013-2-20,43.2,36.4,29.7,37.5,31.9,26.3,90,84,70,30.07,30.01,4,0,6,0.06
2013-2-21,42.8,39.3,34.7,37.3,35.3,31.5,92,86,79,30.11,30.03,6,2,14,0.15
2013-2-22,43.2,41.2,38.7,38.8,36.9,33.2,88,85,79,30.09,29.74,11,2,18,0.41
2013-2-23,47.3,40.4,36.9,39.9,35.0,31.8,90,81,64,30.40,29.93,4,1,11,0.09
2013-2-24,45.7,41.7,37.6,37.9,35.6,33.9,88,79,69,30.41,29.97,4,1,6,0.01
2013-2-25,49.6,42.2,38.7,38.4,34.9,29.9,90,76,47,30.34,29.92,7,2,14,0.18
2013-2-26,48.6,42.0,37.8,35.5,33.2,30.4,86,71,54,30.38,30.21,4,0,8,0.00
2013-2-27,50.4,43.0,38.8,40.6,38.1,35.1,91,83,66,30.33,30.22,5,0,9,0.33
2013-2-28,52.0,45.2,40.6,45.1,41.0,37.7,92,86,78,30.35,30.21,7,1,11,0.44